Hong Xiang 2 — BYBA — position and weather

sailwx.info

Track history (hours):
 
Tides and Currents Weather Stations Pressure Air Temp Water Temp Dewpoint Dewpoint Depression Visibility Wind Speed Wind Dir Waves Ship Positions

Hong Xiang 2

Last reported at 2014-Oct-21 03:33 UTC. Time now 2014-Oct-21 03:51 UTC.
Position N 19°43' E 109°08'.

Length 96 m; draft 4.8 m.

Type: Ship (hazmat cat A). MMSI: 413413000.

Date/timePositionNaut miles runAvg speedWind from/ knotsBaromVisibWave heightAir tempDewpointWater temp
2014-Oct-21 03:33N 19°43' E 109°08'0 0.0
2014-Oct-21 02:33N 19°43' E 109°08'0 0.0
2014-Oct-21 01:33N 19°43' E 109°08'0 0.1
2014-Oct-21 00:33N 19°43' E 109°08'0 0.0
2014-Oct-20 23:33N 19°43' E 109°08'0 0.1
2014-Oct-20 22:33N 19°43' E 109°08'0 0.0
2014-Oct-20 21:33N 19°43' E 109°08'0 0.0
2014-Oct-20 20:33N 19°43' E 109°08'0 0.1
2014-Oct-20 19:33N 19°43' E 109°08'0 0.0
2014-Oct-20 18:33N 19°43' E 109°08'0 0.0
2014-Oct-20 17:32N 19°43' E 109°08'0 0.0
2014-Oct-20 16:32N 19°43' E 109°08'0 0.0
2014-Oct-20 15:33N 19°43' E 109°08'0 0.0
2014-Oct-20 14:33N 19°43' E 109°08'0 0.0
2014-Oct-20 13:27N 19°43' E 109°08'0 0.0
2014-Oct-20 12:33N 19°43' E 109°08'72 9.0
2014-Oct-20 04:33N 20°12' E 110°19'21310.6
2014-Oct-19 08:31N 21°57' E 113°37'10 9.9
2014-Oct-19 07:33N 22°03' E 113°45'1010.4
2014-Oct-19 06:33N 22°14' E 113°47'1010.2
2014-Oct-19 05:33N 22°24' E 113°46'2211.2
2014-Oct-19 03:33N 22°45' E 113°39'1010.1
2014-Oct-19 02:33N 22°54' E 113°34'1 0.1
2014-Oct-18 09:33N 22°55' E 113°33'9 8.2
2014-Oct-18 08:30N 22°47' E 113°37'9 7.7
2014-Oct-18 07:21N 22°39' E 113°41'9 9.7
2014-Oct-18 06:22N 22°31' E 113°45'8 9.3
2014-Oct-18 05:33N 22°23' E 113°46'9 8.8
2014-Oct-18 04:33N 22°14' E 113°48'9 8.6
2014-Oct-18 03:33N 22°06' E 113°45'8 7.9
2014-Oct-18 02:33N 21°59' E 113°42'0 0.2
2014-Oct-18 01:32N 21°59' E 113°42'0 0.0
2014-Oct-18 00:08N 21°59' E 113°42'0 0.1
2014-Oct-17 23:33N 21°59' E 113°42'27 8.7
2014-Oct-17 20:23N 21°45' E 113°16'189 7.6
2014-Oct-16 19:33N 20°10' E 110°21'7 7.3
2014-Oct-16 18:33N 20°09' E 110°13'63 7.7
2014-Oct-16 10:27N 19°52' E 109°09'7 7.9
2014-Oct-16 09:33N 19°45' E 109°09'1 0.3
2014-Oct-16 06:18N 19°46' E 109°10'0 0.0
2014-Oct-16 04:30N 19°46' E 109°10'0 0.0
2014-Oct-16 03:24N 19°46' E 109°10'0 0.0
2014-Oct-15 19:33N 19°46' E 109°10'3 1.9
2014-Oct-15 18:10N 19°44' E 109°08'0 0.0
2014-Oct-15 17:28N 19°44' E 109°08'0 0.0
2014-Oct-15 16:31N 19°44' E 109°08'0 0.0
2014-Oct-15 15:31N 19°44' E 109°08'0 0.0
2014-Oct-15 14:31N 19°44' E 109°08'0 0.0
2014-Oct-15 13:25N 19°44' E 109°08'0 0.0
2014-Oct-15 12:25N 19°44' E 109°08'0 0.1
2014-Oct-15 11:22N 19°44' E 109°08'0 0.0
2014-Oct-15 10:25N 19°44' E 109°08'0 0.0
2014-Oct-15 09:25N 19°44' E 109°08'0 0.0
2014-Oct-15 07:31N 19°44' E 109°08'0 0.0
2014-Oct-15 06:31N 19°44' E 109°08'0 0.0
2014-Oct-15 05:31N 19°44' E 109°08'0 0.0
2014-Oct-15 04:28N 19°44' E 109°08'0 0.0
2014-Oct-15 03:31N 19°44' E 109°08'0 0.0
2014-Oct-15 02:28N 19°44' E 109°08'0 0.1
2014-Oct-15 01:33N 19°44' E 109°08'0 0.0
2014-Oct-14 23:11N 19°44' E 109°08'0 0.0
2014-Oct-14 22:14N 19°44' E 109°08'0 0.0
2014-Oct-14 21:14N 19°44' E 109°08'0 0.4
2014-Oct-14 20:33N 19°44' E 109°08'  
2014-Oct-12 13:28N 21°37' E 113°02'1611.1
2014-Oct-12 12:03N 21°45' E 113°17'1711.1
2014-Oct-12 10:30N 21°54' E 113°33'1010.8
2014-Oct-12 09:33N 21°60' E 113°42'1010.0
2014-Oct-12 08:34N 22°09' E 113°45'1111.3
2014-Oct-12 07:33N 22°20' E 113°48'1110.8
2014-Oct-12 06:32N 22°31' E 113°44'12 9.5
2014-Oct-12 05:14N 22°42' E 113°41'6 9.2
2014-Oct-12 04:32N 22°48' E 113°37'8 8.4
2014-Oct-12 03:33N 22°56' E 113°33'2 1.6
2014-Oct-12 02:32N 22°57' E 113°33'0 0.0
2014-Oct-11 15:11N 22°57' E 113°33'0 0.0
2014-Oct-11 14:06N 22°57' E 113°33'0 0.0
2014-Oct-11 13:24N 22°57' E 113°33'0 0.0
2014-Oct-11 12:29N 22°57' E 113°33'0 0.0
2014-Oct-11 11:23N 22°57' E 113°33'0 0.0
2014-Oct-11 10:11N 22°57' E 113°33'0 0.0
2014-Oct-11 09:23N 22°57' E 113°33'0 0.0
2014-Oct-11 08:11N 22°57' E 113°33'0 0.0
2014-Oct-11 07:05N 22°57' E 113°33'0 0.0
2014-Oct-11 06:17N 22°57' E 113°33'0 0.0
2014-Oct-11 05:17N 22°57' E 113°33'  
Track history (hours):
 
Tides and Currents Weather Stations Pressure Air Temp Water Temp Dewpoint Dewpoint Depression Visibility Wind Speed Wind Dir Waves Ship Positions

Hong Xiang 2

Last reported at 2014-Oct-21 03:33 UTC. Time now 2014-Oct-21 03:51 UTC.
Position N 19°43' E 109°08'.

Length 96 m; draft 4.8 m.

Type: Ship (hazmat cat A). MMSI: 413413000.

Date/timePositionNaut miles runAvg speedWind from/ knotsBaromVisibWave heightAir tempDewpointWater temp
2014-Oct-21 03:33N 19°43' E 109°08'0 0.0
2014-Oct-21 02:33N 19°43' E 109°08'0 0.0
2014-Oct-21 01:33N 19°43' E 109°08'0 0.1
2014-Oct-21 00:33N 19°43' E 109°08'0 0.0
2014-Oct-20 23:33N 19°43' E 109°08'0 0.1
2014-Oct-20 22:33N 19°43' E 109°08'0 0.0
2014-Oct-20 21:33N 19°43' E 109°08'0 0.0
2014-Oct-20 20:33N 19°43' E 109°08'0 0.1
2014-Oct-20 19:33N 19°43' E 109°08'0 0.0
2014-Oct-20 18:33N 19°43' E 109°08'0 0.0
2014-Oct-20 17:32N 19°43' E 109°08'0 0.0
2014-Oct-20 16:32N 19°43' E 109°08'0 0.0
2014-Oct-20 15:33N 19°43' E 109°08'0 0.0
2014-Oct-20 14:33N 19°43' E 109°08'0 0.0
2014-Oct-20 13:27N 19°43' E 109°08'0 0.0
2014-Oct-20 12:33N 19°43' E 109°08'72 9.0
2014-Oct-20 04:33N 20°12' E 110°19'21310.6
2014-Oct-19 08:31N 21°57' E 113°37'10 9.9
2014-Oct-19 07:33N 22°03' E 113°45'1010.4
2014-Oct-19 06:33N 22°14' E 113°47'1010.2
2014-Oct-19 05:33N 22°24' E 113°46'2211.2
2014-Oct-19 03:33N 22°45' E 113°39'1010.1
2014-Oct-19 02:33N 22°54' E 113°34'1 0.1
2014-Oct-18 09:33N 22°55' E 113°33'9 8.2
2014-Oct-18 08:30N 22°47' E 113°37'9 7.7
2014-Oct-18 07:21N 22°39' E 113°41'9 9.7
2014-Oct-18 06:22N 22°31' E 113°45'8 9.3
2014-Oct-18 05:33N 22°23' E 113°46'9 8.8
2014-Oct-18 04:33N 22°14' E 113°48'9 8.6
2014-Oct-18 03:33N 22°06' E 113°45'8 7.9
2014-Oct-18 02:33N 21°59' E 113°42'0 0.2
2014-Oct-18 01:32N 21°59' E 113°42'0 0.0
2014-Oct-18 00:08N 21°59' E 113°42'0 0.1
2014-Oct-17 23:33N 21°59' E 113°42'27 8.7
2014-Oct-17 20:23N 21°45' E 113°16'189 7.6
2014-Oct-16 19:33N 20°10' E 110°21'7 7.3
2014-Oct-16 18:33N 20°09' E 110°13'63 7.7
2014-Oct-16 10:27N 19°52' E 109°09'7 7.9
2014-Oct-16 09:33N 19°45' E 109°09'1 0.3
2014-Oct-16 06:18N 19°46' E 109°10'0 0.0
2014-Oct-16 04:30N 19°46' E 109°10'0 0.0
2014-Oct-16 03:24N 19°46' E 109°10'0 0.0
2014-Oct-15 19:33N 19°46' E 109°10'3 1.9
2014-Oct-15 18:10N 19°44' E 109°08'0 0.0
2014-Oct-15 17:28N 19°44' E 109°08'0 0.0
2014-Oct-15 16:31N 19°44' E 109°08'0 0.0
2014-Oct-15 15:31N 19°44' E 109°08'0 0.0
2014-Oct-15 14:31N 19°44' E 109°08'0 0.0
2014-Oct-15 13:25N 19°44' E 109°08'0 0.0
2014-Oct-15 12:25N 19°44' E 109°08'0 0.1
2014-Oct-15 11:22N 19°44' E 109°08'0 0.0
2014-Oct-15 10:25N 19°44' E 109°08'0 0.0
2014-Oct-15 09:25N 19°44' E 109°08'0 0.0
2014-Oct-15 07:31N 19°44' E 109°08'0 0.0
2014-Oct-15 06:31N 19°44' E 109°08'0 0.0
2014-Oct-15 05:31N 19°44' E 109°08'0 0.0
2014-Oct-15 04:28N 19°44' E 109°08'0 0.0
2014-Oct-15 03:31N 19°44' E 109°08'0 0.0
2014-Oct-15 02:28N 19°44' E 109°08'0 0.1
2014-Oct-15 01:33N 19°44' E 109°08'0 0.0
2014-Oct-14 23:11N 19°44' E 109°08'0 0.0
2014-Oct-14 22:14N 19°44' E 109°08'0 0.0
2014-Oct-14 21:14N 19°44' E 109°08'0 0.4
2014-Oct-14 20:33N 19°44' E 109°08'  
2014-Oct-12 13:28N 21°37' E 113°02'1611.1
2014-Oct-12 12:03N 21°45' E 113°17'1711.1
2014-Oct-12 10:30N 21°54' E 113°33'1010.8
2014-Oct-12 09:33N 21°60' E 113°42'1010.0
2014-Oct-12 08:34N 22°09' E 113°45'1111.3
2014-Oct-12 07:33N 22°20' E 113°48'1110.8
2014-Oct-12 06:32N 22°31' E 113°44'12 9.5
2014-Oct-12 05:14N 22°42' E 113°41'6 9.2
2014-Oct-12 04:32N 22°48' E 113°37'8 8.4
2014-Oct-12 03:33N 22°56' E 113°33'2 1.6
2014-Oct-12 02:32N 22°57' E 113°33'0 0.0
2014-Oct-11 15:11N 22°57' E 113°33'0 0.0
2014-Oct-11 14:06N 22°57' E 113°33'0 0.0
2014-Oct-11 13:24N 22°57' E 113°33'0 0.0
2014-Oct-11 12:29N 22°57' E 113°33'0 0.0
2014-Oct-11 11:23N 22°57' E 113°33'0 0.0
2014-Oct-11 10:11N 22°57' E 113°33'0 0.0
2014-Oct-11 09:23N 22°57' E 113°33'0 0.0
2014-Oct-11 08:11N 22°57' E 113°33'0 0.0
2014-Oct-11 07:05N 22°57' E 113°33'0 0.0
2014-Oct-11 06:17N 22°57' E 113°33'0 0.0
2014-Oct-11 05:17N 22°57' E 113°33'  

Dump ship's entire track history